createdAt,value
2019-01-12T00:00:54.858Z,32.50
2019-01-12T00:01:54.806Z,37.20
2019-01-12T00:02:54.820Z,34.00
2019-01-12T00:03:54.814Z,37.90
2019-01-12T00:04:54.823Z,33.30
2019-01-12T00:05:54.830Z,36.00
2019-01-12T00:06:54.834Z,38.30
2019-01-12T00:07:55.108Z,38.80
2019-01-12T00:08:54.863Z,33.40
2019-01-12T00:09:54.838Z,32.80
2019-01-12T00:10:54.858Z,30.80
2019-01-12T00:11:54.887Z,35.20
2019-01-12T00:12:54.885Z,34.00
2019-01-12T00:13:54.899Z,34.10
2019-01-12T00:14:54.850Z,35.80
2019-01-12T00:15:54.918Z,36.00
2019-01-12T00:16:54.865Z,35.10
2019-01-12T00:17:54.899Z,35.50
2019-01-12T00:18:54.869Z,36.80
2019-01-12T00:19:54.882Z,36.70
2019-01-12T00:20:54.979Z,34.80
2019-01-12T00:21:54.952Z,33.20
2019-01-12T00:22:54.963Z,31.80
2019-01-12T00:23:54.940Z,32.90
2019-01-12T00:24:54.889Z,33.70
2019-01-12T00:25:54.917Z,35.80
2019-01-12T00:26:54.911Z,33.10
2019-01-12T00:27:54.916Z,29.50
2019-01-12T00:28:54.977Z,36.00
2019-01-12T00:29:54.945Z,37.70
2019-01-12T00:30:54.936Z,31.30
2019-01-12T00:31:54.943Z,37.60
2019-01-12T00:32:54.918Z,36.10
2019-01-12T00:33:54.953Z,38.80
2019-01-12T00:34:54.922Z,36.40
2019-01-12T00:35:54.932Z,33.60
2019-01-12T00:36:54.942Z,33.30
2019-01-12T00:37:54.956Z,38.10
2019-01-12T00:38:54.964Z,34.30
2019-01-12T00:39:54.959Z,35.90
2019-01-12T00:40:54.981Z,32.80
2019-01-12T00:41:54.984Z,39.90
2019-01-12T00:42:54.979Z,36.00
2019-01-12T00:43:55.023Z,32.70
2019-01-12T00:44:55.024Z,34.50
2019-01-12T00:45:54.979Z,36.20
2019-01-12T00:46:55.024Z,35.90
2019-01-12T00:47:55.125Z,41.00
2019-01-12T00:48:54.972Z,36.20
2019-01-12T00:49:55.023Z,35.00
2019-01-12T00:50:54.991Z,34.40
2019-01-12T00:51:55.043Z,35.70
2019-01-12T00:52:55.435Z,36.20
2019-01-12T00:53:54.997Z,31.90
2019-01-12T00:54:55.033Z,32.60
2019-01-12T00:55:55.335Z,34.00
2019-01-12T00:56:55.004Z,35.80
2019-01-12T00:57:55.026Z,35.90
2019-01-12T00:58:55.157Z,34.80
2019-01-12T00:59:55.063Z,33.20
2019-01-12T01:00:55.011Z,34.00
2019-01-12T01:01:55.035Z,33.80
2019-01-12T01:02:55.026Z,33.40
2019-01-12T01:03:55.455Z,33.60
2019-01-12T01:04:55.027Z,34.90
2019-01-12T01:05:55.086Z,31.50
2019-01-12T01:06:55.065Z,31.90
2019-01-12T01:07:55.071Z,32.40
2019-01-12T01:08:55.051Z,31.80
2019-01-12T01:09:55.058Z,33.10
2019-01-12T01:10:55.084Z,32.40
2019-01-12T01:11:55.661Z,32.80
2019-01-12T01:12:55.135Z,35.20
2019-01-12T01:13:55.082Z,34.70
2019-01-12T01:14:55.097Z,34.40
2019-01-12T01:15:55.413Z,34.80
2019-01-12T01:16:55.071Z,33.90
2019-01-12T01:17:55.080Z,33.10
2019-01-12T01:18:55.102Z,31.60
2019-01-12T01:19:55.091Z,36.40
2019-01-12T01:20:55.093Z,33.10
2019-01-12T01:21:55.092Z,31.60
2019-01-12T01:22:55.122Z,34.20
2019-01-12T01:23:55.099Z,32.20
2019-01-12T01:24:55.126Z,33.40
2019-01-12T01:25:55.275Z,33.40
2019-01-12T01:26:55.142Z,33.20
2019-01-12T01:27:55.145Z,37.50
2019-01-12T01:28:55.150Z,31.80
2019-01-12T01:29:55.134Z,33.50
2019-01-12T01:30:55.160Z,31.60
2019-01-12T01:31:55.284Z,31.20
2019-01-12T01:32:55.138Z,34.30
2019-01-12T01:33:55.166Z,31.10
2019-01-12T01:34:55.148Z,34.70
2019-01-12T01:35:55.153Z,32.90
2019-01-12T01:36:55.146Z,32.20
2019-01-12T01:37:55.155Z,34.90
2019-01-12T01:38:55.219Z,34.40
2019-01-12T01:39:55.172Z,34.50
2019-01-12T01:40:55.193Z,30.60
2019-01-12T01:41:55.182Z,31.40
2019-01-12T01:42:55.194Z,32.10
2019-01-12T01:43:55.190Z,32.50
2019-01-12T01:44:55.200Z,30.40
2019-01-12T01:45:55.175Z,29.70
2019-01-12T01:46:55.186Z,34.40
2019-01-12T01:47:55.190Z,35.40
2019-01-12T01:48:55.189Z,29.50
2019-01-12T01:49:55.213Z,34.40
2019-01-12T01:50:55.202Z,31.10
2019-01-12T01:51:55.216Z,32.10
2019-01-12T01:52:55.221Z,33.00
2019-01-12T01:53:55.211Z,31.20
2019-01-12T01:54:55.336Z,32.80
2019-01-12T01:55:55.331Z,33.30
2019-01-12T01:56:55.226Z,32.00
2019-01-12T01:57:55.248Z,30.30
2019-01-12T01:58:55.583Z,33.70
2019-01-12T01:59:55.328Z,33.20
2019-01-12T02:00:55.232Z,30.20
2019-01-12T02:01:55.283Z,34.00
2019-01-12T02:02:55.530Z,33.70
2019-01-12T02:03:55.249Z,31.10
2019-01-12T02:04:55.265Z,30.30
2019-01-12T02:05:55.393Z,31.30
2019-01-12T02:06:55.267Z,35.00
2019-01-12T02:07:55.257Z,35.50
2019-01-12T02:08:55.269Z,34.30
2019-01-12T02:09:55.284Z,32.30
2019-01-12T02:10:55.301Z,34.40
2019-01-12T02:11:55.314Z,32.80
2019-01-12T02:12:55.304Z,29.70
2019-01-12T02:13:55.290Z,31.20
2019-01-12T02:14:55.335Z,30.30
2019-01-12T02:15:55.331Z,31.50
2019-01-12T02:16:55.309Z,30.60
2019-01-12T02:17:55.301Z,33.50
2019-01-12T02:18:55.301Z,33.30
2019-01-12T02:19:55.323Z,34.40
2019-01-12T02:20:55.355Z,31.40
2019-01-12T02:21:55.310Z,29.60
2019-01-12T02:22:55.350Z,27.20
2019-01-12T02:23:55.336Z,32.30
2019-01-12T02:24:59.941Z,31.70
2019-01-12T02:25:55.345Z,31.20
2019-01-12T02:26:55.365Z,35.20
2019-01-12T02:27:55.379Z,34.60
2019-01-12T02:28:55.344Z,32.20
2019-01-12T02:29:55.342Z,31.60
2019-01-12T02:30:55.376Z,32.20
2019-01-12T02:31:55.390Z,32.60
2019-01-12T02:32:55.363Z,30.80
2019-01-12T02:33:55.379Z,29.50
2019-01-12T02:34:55.353Z,29.20
2019-01-12T02:35:55.616Z,30.50
2019-01-12T02:36:55.428Z,31.40
2019-01-12T02:37:55.365Z,33.40
2019-01-12T02:38:55.385Z,29.70
2019-01-12T02:39:55.369Z,32.10
2019-01-12T02:40:55.449Z,32.20
2019-01-12T02:41:55.468Z,31.20
2019-01-12T02:42:55.415Z,32.00
2019-01-12T02:43:55.414Z,34.20
2019-01-12T02:44:55.398Z,35.30
2019-01-12T02:45:55.419Z,32.80
2019-01-12T02:46:55.410Z,34.40
2019-01-12T02:47:55.462Z,28.50
2019-01-12T02:48:55.419Z,25.90
2019-01-12T02:49:55.418Z,33.10
2019-01-12T02:50:55.425Z,32.50
2019-01-12T02:51:55.432Z,32.60
2019-01-12T02:52:55.479Z,30.10
2019-01-12T02:53:55.433Z,30.00
2019-01-12T02:54:55.461Z,28.00
2019-01-12T02:55:55.437Z,36.20
2019-01-12T02:56:55.438Z,29.30
2019-01-12T02:57:55.455Z,30.60
2019-01-12T02:58:55.534Z,34.40
2019-01-12T02:59:55.510Z,31.20
2019-01-12T03:00:55.467Z,32.80
2019-01-12T03:01:55.493Z,33.30
2019-01-12T03:02:55.910Z,31.90
2019-01-12T03:03:55.462Z,31.20
2019-01-12T03:04:55.686Z,32.10
2019-01-12T03:05:55.505Z,32.00
2019-01-12T03:06:55.484Z,34.60
2019-01-12T03:07:55.484Z,31.20
2019-01-12T03:08:55.507Z,30.50
2019-01-12T03:09:55.544Z,35.40
2019-01-12T03:10:55.517Z,29.60
2019-01-12T03:11:55.578Z,32.40
2019-01-12T03:12:55.536Z,32.70
2019-01-12T03:13:55.531Z,32.40
2019-01-12T03:14:55.562Z,33.30
2019-01-12T03:15:55.524Z,35.10
2019-01-12T03:16:55.549Z,37.70
2019-01-12T03:17:55.523Z,34.30
2019-01-12T03:18:55.616Z,32.40
2019-01-12T03:19:55.533Z,34.70
2019-01-12T03:20:55.594Z,33.10
2019-01-12T03:21:55.531Z,33.20
2019-01-12T03:22:55.566Z,35.10
2019-01-12T03:23:55.546Z,31.60
2019-01-12T03:24:55.579Z,33.10
2019-01-12T03:25:55.567Z,31.30
2019-01-12T03:26:55.599Z,32.50
2019-01-12T03:27:55.579Z,34.20
2019-01-12T03:28:55.559Z,36.80
2019-01-12T03:29:55.568Z,33.50
2019-01-12T03:30:55.566Z,32.50
2019-01-12T03:31:55.675Z,34.00
2019-01-12T03:32:55.607Z,32.30
2019-01-12T03:33:55.585Z,35.00
2019-01-12T03:34:55.571Z,37.30
2019-01-12T03:35:55.595Z,35.00
2019-01-12T03:36:55.652Z,31.00
2019-01-12T03:37:55.603Z,31.80
2019-01-12T03:38:55.596Z,29.90
2019-01-12T03:39:55.604Z,38.40
2019-01-12T03:40:55.629Z,31.70
2019-01-12T03:41:55.695Z,30.40
2019-01-12T03:42:55.647Z,31.30
2019-01-12T03:43:55.660Z,29.90
2019-01-12T03:44:55.613Z,33.80
2019-01-12T03:45:55.677Z,34.00
2019-01-12T03:46:55.660Z,34.10
2019-01-12T03:47:55.648Z,32.30
2019-01-12T03:48:55.712Z,32.50
2019-01-12T03:49:55.638Z,31.50
2019-01-12T03:50:55.680Z,39.10
2019-01-12T03:51:55.679Z,33.80
2019-01-12T03:52:55.695Z,31.80
2019-01-12T03:53:55.650Z,33.00
2019-01-12T03:54:55.684Z,34.20
2019-01-12T03:55:55.677Z,31.50
2019-01-12T03:56:55.668Z,33.30
2019-01-12T03:57:55.706Z,32.20
2019-01-12T03:58:55.676Z,33.20
2019-01-12T03:59:55.701Z,36.20
2019-01-12T04:00:55.701Z,30.80
2019-01-12T04:01:55.702Z,35.10
2019-01-12T04:02:55.697Z,33.40
2019-01-12T04:03:55.697Z,32.20
2019-01-12T04:04:55.739Z,32.40
2019-01-12T04:05:55.729Z,37.50
2019-01-12T04:06:55.712Z,35.10
2019-01-12T04:07:55.702Z,31.00
2019-01-12T04:08:55.723Z,34.50
2019-01-12T04:09:55.700Z,34.10
2019-01-12T04:10:55.757Z,36.60
2019-01-12T04:11:55.712Z,34.80
2019-01-12T04:12:55.745Z,34.90
2019-01-12T04:13:55.730Z,33.20
2019-01-12T04:14:55.734Z,37.80
2019-01-12T04:15:55.789Z,35.00
2019-01-12T04:16:55.746Z,38.40
2019-01-12T04:17:55.741Z,36.50
2019-01-12T04:18:55.743Z,32.50
2019-01-12T04:19:55.750Z,34.90
2019-01-12T04:20:55.771Z,37.20
2019-01-12T04:21:55.759Z,33.80
2019-01-12T04:22:55.868Z,34.50
2019-01-12T04:23:55.782Z,37.50
2019-01-12T04:24:55.779Z,34.60
2019-01-12T04:25:55.786Z,36.00
2019-01-12T04:26:55.809Z,35.80
2019-01-12T04:27:55.794Z,35.60
2019-01-12T04:28:55.805Z,33.00
2019-01-12T04:29:55.816Z,34.10
2019-01-12T04:30:55.791Z,36.00
2019-01-12T04:31:55.831Z,33.80
2019-01-12T04:32:55.797Z,35.10
2019-01-12T04:33:55.811Z,34.90
2019-01-12T04:34:55.805Z,33.80
2019-01-12T04:35:55.802Z,31.70
2019-01-12T04:36:55.830Z,31.00
2019-01-12T04:37:55.871Z,32.80
2019-01-12T04:38:55.822Z,36.40
2019-01-12T04:39:55.835Z,35.50
2019-01-12T04:40:55.831Z,31.40
2019-01-12T04:41:55.832Z,35.10
2019-01-12T04:42:55.827Z,34.00
2019-01-12T04:43:55.881Z,34.30
2019-01-12T04:44:55.841Z,33.40
2019-01-12T04:45:55.869Z,32.60
2019-01-12T04:46:55.851Z,32.60
2019-01-12T04:47:55.870Z,36.50
2019-01-12T04:48:55.886Z,32.60
2019-01-12T04:49:55.899Z,32.40
2019-01-12T04:50:55.929Z,31.80
2019-01-12T04:51:55.882Z,34.00
2019-01-12T04:52:55.868Z,33.50
2019-01-12T04:53:55.924Z,32.50
2019-01-12T04:54:55.918Z,37.20
2019-01-12T04:55:55.889Z,32.60
2019-01-12T04:56:55.900Z,32.10
2019-01-12T04:57:55.931Z,33.40
2019-01-12T04:58:55.910Z,33.70
2019-01-12T04:59:55.927Z,33.20
2019-01-12T05:00:55.939Z,36.50
2019-01-12T05:01:55.934Z,33.10
2019-01-12T05:02:55.934Z,35.20
2019-01-12T05:03:55.916Z,30.50
2019-01-12T05:04:55.992Z,33.60
2019-01-12T05:05:55.933Z,34.30
2019-01-12T05:06:55.939Z,32.10
2019-01-12T05:07:55.924Z,37.00
2019-01-12T05:08:55.953Z,35.50
2019-01-12T05:09:55.980Z,31.30
2019-01-12T05:10:55.966Z,27.20
2019-01-12T05:11:56.019Z,33.70
2019-01-12T05:12:55.941Z,31.70
2019-01-12T05:13:55.964Z,34.10
2019-01-12T05:14:55.958Z,28.70
2019-01-12T05:15:55.995Z,33.40
2019-01-12T05:16:56.024Z,32.60
2019-01-12T05:17:55.997Z,30.50
2019-01-12T05:18:55.981Z,29.60
2019-01-12T05:19:55.980Z,30.00
2019-01-12T05:20:55.994Z,30.80
2019-01-12T05:21:55.978Z,32.00
2019-01-12T05:22:56.051Z,31.70
2019-01-12T05:23:56.216Z,29.90
2019-01-12T05:24:56.000Z,29.30
2019-01-12T05:25:56.036Z,30.90
2019-01-12T05:26:56.007Z,30.60
2019-01-12T05:27:56.020Z,32.60
2019-01-12T05:28:56.060Z,32.30
2019-01-12T05:29:56.021Z,31.30
2019-01-12T05:30:56.017Z,30.80
2019-01-12T05:31:56.022Z,29.60
2019-01-12T05:32:56.033Z,26.90
2019-01-12T05:33:56.099Z,30.90
2019-01-12T05:34:56.042Z,32.30
2019-01-12T05:35:56.045Z,30.90
2019-01-12T05:36:56.057Z,26.50
2019-01-12T05:37:56.047Z,28.20
2019-01-12T05:38:56.081Z,30.40
2019-01-12T05:39:56.070Z,31.10
2019-01-12T05:40:56.081Z,31.60
2019-01-12T05:41:56.068Z,27.60
2019-01-12T05:42:56.098Z,31.50
2019-01-12T05:43:56.100Z,27.20
2019-01-12T05:44:56.110Z,29.40
2019-01-12T05:45:56.085Z,29.00
2019-01-12T05:46:56.111Z,25.90
2019-01-12T05:47:56.103Z,28.40
2019-01-12T05:48:56.147Z,28.10
2019-01-12T05:49:56.139Z,28.90
2019-01-12T05:50:56.531Z,29.40
2019-01-12T05:51:56.123Z,29.50
2019-01-12T05:52:56.120Z,30.20
2019-01-12T05:53:56.208Z,30.90
2019-01-12T05:54:56.122Z,28.60
2019-01-12T05:55:58.032Z,27.30
2019-01-12T05:56:56.155Z,27.70
2019-01-12T05:57:56.358Z,27.40
2019-01-12T05:58:56.336Z,26.70
2019-01-12T05:59:56.164Z,22.70
2019-01-12T06:00:56.173Z,28.60
2019-01-12T06:01:56.208Z,26.40
2019-01-12T06:02:56.161Z,27.40
2019-01-12T06:03:56.426Z,27.20
2019-01-12T06:04:56.281Z,27.00
2019-01-12T06:05:56.162Z,24.90
2019-01-12T06:06:56.159Z,25.20
2019-01-12T06:07:56.189Z,26.50
2019-01-12T06:08:56.206Z,23.80
2019-01-12T06:09:56.179Z,25.50
2019-01-12T06:10:56.176Z,25.30
2019-01-12T06:11:56.300Z,27.50
2019-01-12T06:12:56.229Z,24.40
2019-01-12T06:13:56.224Z,26.60
2019-01-12T06:14:56.520Z,25.40
2019-01-12T06:15:56.227Z,23.10
2019-01-12T06:16:56.202Z,26.40
2019-01-12T06:17:56.700Z,25.90
2019-01-12T06:18:56.261Z,26.30
2019-01-12T06:19:56.249Z,27.30
2019-01-12T06:20:56.283Z,28.80
2019-01-12T06:21:56.213Z,28.20
2019-01-12T06:22:56.306Z,24.30
2019-01-12T06:23:56.271Z,24.10
2019-01-12T06:24:56.221Z,22.00
2019-01-12T06:25:56.238Z,26.00
2019-01-12T06:26:56.236Z,26.70
2019-01-12T06:27:56.241Z,24.10
2019-01-12T06:28:56.272Z,22.70
2019-01-12T06:29:56.278Z,24.70
2019-01-12T06:30:56.285Z,24.60
2019-01-12T06:31:56.261Z,23.40
2019-01-12T06:32:56.260Z,22.20
2019-01-12T06:33:56.277Z,23.70
2019-01-12T06:34:56.362Z,20.70
2019-01-12T06:35:56.283Z,23.70
2019-01-12T06:36:56.354Z,24.60
2019-01-12T06:37:56.271Z,20.70
2019-01-12T06:38:56.568Z,23.20
2019-01-12T06:39:56.289Z,29.60
2019-01-12T06:40:56.295Z,23.40
2019-01-12T06:41:56.341Z,19.70
2019-01-12T06:42:56.321Z,23.50
2019-01-12T06:43:57.229Z,24.50
2019-01-12T06:44:56.589Z,21.90
2019-01-12T06:45:56.312Z,26.90
2019-01-12T06:46:56.657Z,24.00
2019-01-12T06:47:56.346Z,21.80
2019-01-12T06:48:56.315Z,22.70
2019-01-12T06:49:56.337Z,25.20
2019-01-12T06:50:56.411Z,21.90
2019-01-12T06:51:56.347Z,24.00
2019-01-12T06:52:56.373Z,20.40
2019-01-12T06:53:56.341Z,23.60
2019-01-12T06:54:56.370Z,22.90
2019-01-12T06:55:56.365Z,22.00
2019-01-12T06:56:56.350Z,20.30
2019-01-12T06:57:56.397Z,24.10
2019-01-12T06:58:56.422Z,25.10
2019-01-12T06:59:56.372Z,21.00
2019-01-12T07:00:56.374Z,23.50
2019-01-12T07:01:56.458Z,22.30
2019-01-12T07:02:56.406Z,25.30
2019-01-12T07:03:56.587Z,22.50
2019-01-12T07:04:56.452Z,23.80
2019-01-12T07:05:57.146Z,19.90
2019-01-12T07:06:56.460Z,19.20
2019-01-12T07:07:56.414Z,23.80
2019-01-12T07:08:56.484Z,18.80
2019-01-12T07:09:56.440Z,20.40
2019-01-12T07:10:56.442Z,26.00
2019-01-12T07:11:56.418Z,21.90
2019-01-12T07:12:56.426Z,22.20
2019-01-12T07:13:56.435Z,24.20
2019-01-12T07:14:56.459Z,21.90
2019-01-12T07:15:56.444Z,17.90
2019-01-12T07:16:56.442Z,19.00
2019-01-12T07:17:56.434Z,24.60
2019-01-12T07:18:56.450Z,22.10
2019-01-12T07:19:56.466Z,19.80
2019-01-12T07:20:56.451Z,22.10
2019-01-12T07:21:56.465Z,25.30
2019-01-12T07:22:56.488Z,20.70
2019-01-12T07:23:56.472Z,17.80
2019-01-12T07:24:56.497Z,23.00
2019-01-12T07:25:56.504Z,22.30
2019-01-12T07:26:56.471Z,21.70
2019-01-12T07:27:56.472Z,20.90
2019-01-12T07:28:56.501Z,22.70
2019-01-12T07:29:56.524Z,20.40
2019-01-12T07:30:56.534Z,23.20
2019-01-12T07:31:56.512Z,22.10
2019-01-12T07:32:56.521Z,18.90
2019-01-12T07:33:56.509Z,23.50
2019-01-12T07:34:56.511Z,24.20
2019-01-12T07:35:56.597Z,24.30
2019-01-12T07:36:56.546Z,22.00
2019-01-12T07:37:56.516Z,17.70
2019-01-12T07:38:56.720Z,21.30
2019-01-12T07:39:56.534Z,22.60
2019-01-12T07:40:56.537Z,20.20
2019-01-12T07:41:56.644Z,22.70
2019-01-12T07:42:56.557Z,22.90
2019-01-12T07:43:56.604Z,22.00
2019-01-12T07:44:56.577Z,24.60
2019-01-12T07:45:56.556Z,23.60
2019-01-12T07:46:57.168Z,22.10
2019-01-12T07:47:56.603Z,21.70
2019-01-12T07:48:56.562Z,21.50
2019-01-12T07:49:56.573Z,21.30
2019-01-12T07:50:57.598Z,25.10
2019-01-12T07:51:57.538Z,24.90
2019-01-12T07:52:56.574Z,22.20
2019-01-12T07:53:56.623Z,21.20
2019-01-12T07:54:56.596Z,25.20
2019-01-12T07:55:56.852Z,22.90
2019-01-12T07:56:56.625Z,23.60
2019-01-12T07:57:56.687Z,23.30
2019-01-12T07:58:56.693Z,23.10
2019-01-12T07:59:56.725Z,26.60
2019-01-12T08:00:56.615Z,25.70
2019-01-12T08:01:56.618Z,23.60
2019-01-12T08:02:56.645Z,20.90
2019-01-12T08:03:56.704Z,22.40
2019-01-12T08:04:56.671Z,24.60
2019-01-12T08:05:56.667Z,25.40
2019-01-12T08:06:56.658Z,25.00
2019-01-12T08:07:56.656Z,22.10
2019-01-12T08:08:56.670Z,24.50
2019-01-12T08:09:56.650Z,28.00
2019-01-12T08:10:56.748Z,25.00
2019-01-12T08:11:56.735Z,23.80
2019-01-12T08:12:56.699Z,24.20
2019-01-12T08:13:56.721Z,25.10
2019-01-12T08:14:56.757Z,24.00
2019-01-12T08:15:56.697Z,27.20
2019-01-12T08:16:56.689Z,27.50
2019-01-12T08:17:56.682Z,21.40
2019-01-12T08:18:56.735Z,24.60
2019-01-12T08:19:56.711Z,24.50
2019-01-12T08:20:56.783Z,25.20
2019-01-12T08:21:56.767Z,26.30
2019-01-12T08:22:56.727Z,24.10
2019-01-12T08:23:56.716Z,21.80
2019-01-12T08:24:56.740Z,23.90
2019-01-12T08:25:56.722Z,22.10
2019-01-12T08:26:56.784Z,23.20
2019-01-12T08:27:56.737Z,23.30
2019-01-12T08:28:56.749Z,23.70
2019-01-12T08:29:56.744Z,26.90
2019-01-12T08:30:56.743Z,28.70
2019-01-12T08:31:56.765Z,23.80
2019-01-12T08:32:56.832Z,23.90
2019-01-12T08:33:56.769Z,23.70
2019-01-12T08:34:56.777Z,23.10
2019-01-12T08:35:56.819Z,25.60
2019-01-12T08:36:56.810Z,25.90
2019-01-12T08:37:56.900Z,25.90
2019-01-12T08:38:56.781Z,24.10
2019-01-12T08:39:56.846Z,24.70
2019-01-12T08:40:56.787Z,23.20
2019-01-12T08:41:56.787Z,23.90
2019-01-12T08:42:56.835Z,25.30
2019-01-12T08:43:56.823Z,22.70
2019-01-12T08:44:56.814Z,22.60
2019-01-12T08:45:56.851Z,24.20
2019-01-12T08:46:56.822Z,23.30
2019-01-12T08:47:56.822Z,21.70
2019-01-12T08:48:56.870Z,24.60
2019-01-12T08:49:56.817Z,25.30
2019-01-12T08:50:57.329Z,26.30
2019-01-12T08:51:56.913Z,27.80
2019-01-12T08:52:56.837Z,24.00
2019-01-12T08:53:57.507Z,22.40
2019-01-12T08:54:56.924Z,27.70
2019-01-12T08:55:56.870Z,22.10
2019-01-12T08:56:56.873Z,26.60
2019-01-12T08:57:56.871Z,23.30
2019-01-12T08:58:56.883Z,23.00
2019-01-12T08:59:56.933Z,23.10
2019-01-12T09:00:56.920Z,24.30
2019-01-12T09:01:56.975Z,20.00
2019-01-12T09:02:56.894Z,21.60
2019-01-12T09:03:56.885Z,26.60
2019-01-12T09:04:56.895Z,25.40
2019-01-12T09:05:56.907Z,24.10
2019-01-12T09:06:56.894Z,20.70
2019-01-12T09:07:56.927Z,24.80
2019-01-12T09:08:56.978Z,20.40
2019-01-12T09:09:56.927Z,23.20
2019-01-12T09:10:56.925Z,21.60
2019-01-12T09:11:56.933Z,24.00
2019-01-12T09:12:56.940Z,23.50
2019-01-12T09:13:57.105Z,23.60
2019-01-12T09:14:56.968Z,23.10
2019-01-12T09:15:56.932Z,24.00
2019-01-12T09:16:56.947Z,22.80
2019-01-12T09:17:56.963Z,27.60
2019-01-12T09:18:56.958Z,21.70
2019-01-12T09:19:56.961Z,22.60
2019-01-12T09:20:56.957Z,21.50
2019-01-12T09:21:56.982Z,24.10
2019-01-12T09:22:57.015Z,26.50
2019-01-12T09:23:56.971Z,23.80
2019-01-12T09:24:57.011Z,22.70
2019-01-12T09:25:57.045Z,24.90
2019-01-12T09:26:56.995Z,24.70
2019-01-12T09:27:56.995Z,23.00
2019-01-12T09:28:57.023Z,23.10
2019-01-12T09:29:57.042Z,24.30
2019-01-12T09:30:57.026Z,22.70
2019-01-12T09:31:57.033Z,22.50
2019-01-12T09:32:57.016Z,24.20
2019-01-12T09:33:57.124Z,20.60
2019-01-12T09:34:57.083Z,25.10
2019-01-12T09:35:57.045Z,22.90
2019-01-12T09:36:57.090Z,20.50
2019-01-12T09:37:57.055Z,23.00
2019-01-12T09:38:57.039Z,22.10
2019-01-12T09:39:57.067Z,21.20
2019-01-12T09:40:57.057Z,20.90
2019-01-12T09:41:57.813Z,18.90
2019-01-12T09:42:57.113Z,20.80
2019-01-12T09:43:57.093Z,19.20
2019-01-12T09:44:57.080Z,20.50
2019-01-12T09:45:57.107Z,21.00
2019-01-12T09:46:57.097Z,20.30
2019-01-12T09:47:57.135Z,20.40
2019-01-12T09:48:57.129Z,18.90
2019-01-12T09:49:57.136Z,18.60
2019-01-12T09:50:57.168Z,18.20
2019-01-12T09:51:57.124Z,17.90
2019-01-12T09:52:57.128Z,17.90
2019-01-12T09:53:58.196Z,19.20
2019-01-12T09:54:57.135Z,17.00
2019-01-12T09:55:57.182Z,19.40
2019-01-12T09:56:57.201Z,17.30
2019-01-12T09:57:57.131Z,15.80
2019-01-12T09:58:57.124Z,17.20
2019-01-12T09:59:57.129Z,17.50
2019-01-12T10:00:57.198Z,15.90
2019-01-12T10:01:57.195Z,14.30
2019-01-12T10:02:57.158Z,12.70
2019-01-12T10:03:57.172Z,12.90
2019-01-12T10:04:57.177Z,10.60
2019-01-12T10:05:57.221Z,14.40
2019-01-12T10:06:57.246Z,11.30
2019-01-12T10:07:57.173Z,10.60
2019-01-12T10:08:57.190Z,12.70
2019-01-12T10:09:57.212Z,10.80
2019-01-12T10:10:57.225Z,11.60
2019-01-12T10:11:57.198Z,13.90
2019-01-12T10:12:58.139Z,13.00
2019-01-12T10:13:57.227Z,12.00
2019-01-12T10:14:57.210Z,10.20
2019-01-12T10:15:57.209Z,11.00
2019-01-12T10:16:57.247Z,13.00
2019-01-12T10:17:57.238Z,11.30
2019-01-12T10:18:57.223Z,10.40
2019-01-12T10:19:57.226Z,9.40
2019-01-12T10:20:57.330Z,8.00
2019-01-12T10:21:57.239Z,8.20
2019-01-12T10:22:57.254Z,7.30
2019-01-12T10:23:57.293Z,6.30
2019-01-12T10:24:57.269Z,7.20
2019-01-12T10:25:57.265Z,6.40
2019-01-12T10:26:58.658Z,5.80
2019-01-12T10:27:57.323Z,7.00
2019-01-12T10:28:57.291Z,7.30
2019-01-12T10:29:57.276Z,7.30
2019-01-12T10:30:57.278Z,6.60
2019-01-12T10:31:57.289Z,7.60
2019-01-12T10:32:57.317Z,6.70
2019-01-12T10:33:57.361Z,5.70
2019-01-12T10:34:57.325Z,13.40
2019-01-12T10:35:57.302Z,7.80
2019-01-12T10:36:57.313Z,3.90
2019-01-12T10:37:57.345Z,5.50
2019-01-12T10:38:57.336Z,5.70
2019-01-12T10:39:57.349Z,6.10
2019-01-12T10:40:57.322Z,6.60
2019-01-12T10:41:57.375Z,4.70
2019-01-12T10:42:57.332Z,6.70
2019-01-12T10:43:57.389Z,6.40
2019-01-12T10:44:57.441Z,6.90
2019-01-12T10:45:57.369Z,6.60
2019-01-12T10:46:57.341Z,7.80
2019-01-12T10:47:57.383Z,6.40
2019-01-12T10:48:57.378Z,4.60
2019-01-12T10:49:57.365Z,4.90
2019-01-12T10:50:57.455Z,4.30
2019-01-12T10:51:57.395Z,4.90
2019-01-12T10:52:57.373Z,3.90
2019-01-12T10:53:57.397Z,6.30
2019-01-12T10:54:57.386Z,4.40
2019-01-12T10:55:57.436Z,3.90
2019-01-12T10:56:57.437Z,4.50
2019-01-12T10:57:57.405Z,3.80
2019-01-12T10:58:57.426Z,4.40
2019-01-12T10:59:57.442Z,5.70
2019-01-12T11:00:57.546Z,6.20
2019-01-12T11:01:57.462Z,4.80
2019-01-12T11:02:57.423Z,5.10
2019-01-12T11:03:57.440Z,6.80
2019-01-12T11:04:57.557Z,5.00
2019-01-12T11:05:57.488Z,4.90
2019-01-12T11:06:57.461Z,5.90
2019-01-12T11:07:57.454Z,4.90
2019-01-12T11:08:57.513Z,5.30
2019-01-12T11:10:03.928Z,4.50
2019-01-12T11:10:57.464Z,4.60
2019-01-12T11:11:57.473Z,5.80
2019-01-12T11:12:57.472Z,4.70
2019-01-12T11:13:57.499Z,5.20
2019-01-12T11:14:57.512Z,4.20
2019-01-12T11:15:57.492Z,8.00
2019-01-12T11:16:57.508Z,4.60
2019-01-12T11:17:57.528Z,4.80
2019-01-12T11:18:57.508Z,4.70
2019-01-12T11:19:57.507Z,5.10
2019-01-12T11:20:57.551Z,5.50
2019-01-12T11:21:57.528Z,6.00
2019-01-12T11:22:57.536Z,5.10
2019-01-12T11:23:57.543Z,3.50
2019-01-12T11:24:57.530Z,4.80
2019-01-12T11:25:57.562Z,5.00
2019-01-12T11:26:57.551Z,5.00
2019-01-12T11:27:57.627Z,7.00
2019-01-12T11:28:57.544Z,5.80
2019-01-12T11:29:57.692Z,5.10
2019-01-12T11:30:58.730Z,6.20
2019-01-12T11:31:57.608Z,6.20
2019-01-12T11:32:57.579Z,6.10
2019-01-12T11:33:57.674Z,4.50
2019-01-12T11:34:57.591Z,5.10
2019-01-12T11:35:57.672Z,6.50
2019-01-12T11:36:57.631Z,5.50
2019-01-12T11:37:57.605Z,4.70
2019-01-12T11:38:57.653Z,6.30
2019-01-12T11:39:57.621Z,6.40
2019-01-12T11:40:57.770Z,4.30
2019-01-12T11:41:57.609Z,5.10
2019-01-12T11:42:58.031Z,5.60
2019-01-12T11:43:57.679Z,5.60
2019-01-12T11:44:57.644Z,6.70
2019-01-12T11:45:57.732Z,8.70
2019-01-12T11:46:57.635Z,8.70
2019-01-12T11:47:57.746Z,8.50
2019-01-12T11:48:57.732Z,7.60
2019-01-12T11:49:57.694Z,6.10
2019-01-12T11:50:57.713Z,5.30
2019-01-12T11:51:57.701Z,7.80
2019-01-12T11:52:57.707Z,9.70
2019-01-12T11:53:57.698Z,6.50
2019-01-12T11:54:57.712Z,5.70
2019-01-12T11:55:57.772Z,5.40
2019-01-12T11:56:57.750Z,5.80
2019-01-12T11:57:57.784Z,6.40
2019-01-12T11:58:57.718Z,5.30
2019-01-12T11:59:57.922Z,7.00
2019-01-12T12:00:57.754Z,5.50
2019-01-12T12:01:57.767Z,7.10
2019-01-12T12:02:57.761Z,5.00
2019-01-12T12:03:57.739Z,4.50
2019-01-12T12:04:57.791Z,5.50
2019-01-12T12:05:57.738Z,5.50
2019-01-12T12:06:57.743Z,5.00
2019-01-12T12:07:57.998Z,5.60
2019-01-12T12:08:57.768Z,5.70
2019-01-12T12:09:57.792Z,4.60
2019-01-12T12:10:57.900Z,6.00
2019-01-12T12:11:57.781Z,8.80
2019-01-12T12:12:57.777Z,4.40
2019-01-12T12:13:58.046Z,5.60
2019-01-12T12:14:57.801Z,4.80
2019-01-12T12:15:57.852Z,6.70
2019-01-12T12:16:57.824Z,6.70
2019-01-12T12:17:57.804Z,7.60
2019-01-12T12:18:57.819Z,7.30
2019-01-12T12:19:57.972Z,7.60
2019-01-12T12:20:59.077Z,4.40
2019-01-12T12:21:57.911Z,4.80
2019-01-12T12:22:57.883Z,4.60
2019-01-12T12:23:57.846Z,6.00
2019-01-12T12:24:57.887Z,7.10
2019-01-12T12:25:57.932Z,5.90
2019-01-12T12:26:58.072Z,6.00
2019-01-12T12:27:57.862Z,4.20
2019-01-12T12:28:57.917Z,7.20
2019-01-12T12:29:57.869Z,7.30
2019-01-12T12:30:57.941Z,8.30
2019-01-12T12:31:57.909Z,7.20
2019-01-12T12:32:57.881Z,6.90
2019-01-12T12:33:57.898Z,5.30
2019-01-12T12:34:57.880Z,8.10
2019-01-12T12:35:57.948Z,6.70
2019-01-12T12:36:57.913Z,7.40
2019-01-12T12:37:58.109Z,8.00
2019-01-12T12:38:58.152Z,5.50
2019-01-12T12:39:57.920Z,6.30
2019-01-12T12:40:57.918Z,4.60
2019-01-12T12:41:57.936Z,5.90
2019-01-12T12:42:57.943Z,6.20
2019-01-12T12:43:57.946Z,7.80
2019-01-12T12:44:57.926Z,5.90
2019-01-12T12:45:57.950Z,6.40
2019-01-12T12:46:57.997Z,5.80
2019-01-12T12:47:58.022Z,7.10
2019-01-12T12:48:57.962Z,8.30
2019-01-12T12:49:57.997Z,8.10
2019-01-12T12:50:59.564Z,5.20
2019-01-12T12:51:57.968Z,7.80
2019-01-12T12:52:58.695Z,7.50
2019-01-12T12:53:58.120Z,8.50
2019-01-12T12:54:57.993Z,6.40
2019-01-12T12:55:58.079Z,6.80
2019-01-12T12:56:57.998Z,5.00
2019-01-12T12:57:58.027Z,5.00